sensor_id;sensor_type;location;lat;lon;timestamp;temperature;humidity
44817;DHT22;30529;53.570;9.964;2022-09-09T00:03:45;14.40;99.90
44817;DHT22;30529;53.570;9.964;2022-09-09T00:09:03;14.40;99.90
44817;DHT22;30529;53.570;9.964;2022-09-09T00:17:04;14.30;99.90
44817;DHT22;30529;53.570;9.964;2022-09-09T00:19:45;14.30;99.90
44817;DHT22;30529;53.570;9.964;2022-09-09T00:22:21;14.40;99.90
44817;DHT22;30529;53.570;9.964;2022-09-09T00:24:54;14.40;99.90
44817;DHT22;30529;53.570;9.964;2022-09-09T00:27:25;14.50;99.90
44817;DHT22;30529;53.570;9.964;2022-09-09T00:30:00;14.60;99.90
44817;DHT22;30529;53.570;9.964;2022-09-09T00:32:29;14.70;99.90
44817;DHT22;30529;53.570;9.964;2022-09-09T00:35:03;14.70;99.90
44817;DHT22;30529;53.570;9.964;2022-09-09T00:37:32;14.80;99.90
44817;DHT22;30529;53.570;9.964;2022-09-09T00:40:01;14.90;99.90
44817;DHT22;30529;53.570;9.964;2022-09-09T00:42:43;15.00;99.90
44817;DHT22;30529;53.570;9.964;2022-09-09T00:47:52;15.10;99.90
44817;DHT22;30529;53.570;9.964;2022-09-09T00:50:52;15.20;99.90
44817;DHT22;30529;53.570;9.964;2022-09-09T00:56:29;15.30;99.90
44817;DHT22;30529;53.570;9.964;2022-09-09T01:01:36;15.20;99.90
44817;DHT22;30529;53.570;9.964;2022-09-09T01:04:09;15.30;99.90
44817;DHT22;30529;53.570;9.964;2022-09-09T01:06:37;15.30;99.90
44817;DHT22;30529;53.570;9.964;2022-09-09T01:09:24;15.20;99.90
44817;DHT22;30529;53.570;9.964;2022-09-09T01:14:47;15.20;99.90
44817;DHT22;30529;53.570;9.964;2022-09-09T01:17:26;15.10;99.90
44817;DHT22;30529;53.570;9.964;2022-09-09T01:25:22;14.90;99.90
44817;DHT22;30529;53.570;9.964;2022-09-09T01:27:55;14.90;99.90
44817;DHT22;30529;53.570;9.964;2022-09-09T01:30:22;14.80;99.90
44817;DHT22;30529;53.570;9.964;2022-09-09T01:32:52;14.80;99.90
44817;DHT22;30529;53.570;9.964;2022-09-09T01:38:00;14.80;99.90
44817;DHT22;30529;53.570;9.964;2022-09-09T01:40:26;14.80;99.90
44817;DHT22;30529;53.570;9.964;2022-09-09T01:42:53;14.80;99.90
44817;DHT22;30529;53.570;9.964;2022-09-09T01:45:21;14.80;99.90
44817;DHT22;30529;53.570;9.964;2022-09-09T01:47:47;14.70;99.90
44817;DHT22;30529;53.570;9.964;2022-09-09T01:50:15;14.70;99.90
44817;DHT22;30529;53.570;9.964;2022-09-09T01:52:43;14.70;99.90
44817;DHT22;30529;53.570;9.964;2022-09-09T01:55:11;14.70;99.90
44817;DHT22;30529;53.570;9.964;2022-09-09T02:00:41;14.70;99.90
44817;DHT22;30529;53.570;9.964;2022-09-09T02:03:25;14.70;99.90
44817;DHT22;30529;53.570;9.964;2022-09-09T02:06:14;14.70;99.90
44817;DHT22;30529;53.570;9.964;2022-09-09T02:08:52;14.60;99.90
44817;DHT22;30529;53.570;9.964;2022-09-09T02:11:25;14.50;99.90
44817;DHT22;30529;53.570;9.964;2022-09-09T02:13:57;14.50;99.90
44817;DHT22;30529;53.570;9.964;2022-09-09T02:19:20;14.40;99.90
44817;DHT22;30529;53.570;9.964;2022-09-09T02:21:53;14.40;99.90
44817;DHT22;30529;53.570;9.964;2022-09-09T02:24:21;14.40;99.90
44817;DHT22;30529;53.570;9.964;2022-09-09T02:26:50;14.40;99.90
44817;DHT22;30529;53.570;9.964;2022-09-09T02:29:23;14.40;99.90
44817;DHT22;30529;53.570;9.964;2022-09-09T02:31:51;14.30;99.90
44817;DHT22;30529;53.570;9.964;2022-09-09T02:34:20;14.30;99.90
44817;DHT22;30529;53.570;9.964;2022-09-09T02:36:48;14.30;99.90
44817;DHT22;30529;53.570;9.964;2022-09-09T02:39:15;14.30;99.90
44817;DHT22;30529;53.570;9.964;2022-09-09T02:41:42;14.20;99.90
44817;DHT22;30529;53.570;9.964;2022-09-09T02:44:11;14.20;99.90
44817;DHT22;30529;53.570;9.964;2022-09-09T02:52:18;14.20;99.90
44817;DHT22;30529;53.570;9.964;2022-09-09T02:54:46;14.10;99.90
44817;DHT22;30529;53.570;9.964;2022-09-09T02:57:21;14.10;99.90
44817;DHT22;30529;53.570;9.964;2022-09-09T02:59:48;14.10;99.90
44817;DHT22;30529;53.570;9.964;2022-09-09T03:02:15;14.10;99.90
44817;DHT22;30529;53.570;9.964;2022-09-09T03:04:42;14.10;99.90
44817;DHT22;30529;53.570;9.964;2022-09-09T03:07:11;14.10;99.90
44817;DHT22;30529;53.570;9.964;2022-09-09T03:09:37;14.10;99.90
44817;DHT22;30529;53.570;9.964;2022-09-09T03:12:03;14.10;99.90
44817;DHT22;30529;53.570;9.964;2022-09-09T03:14:30;14.10;99.90
44817;DHT22;30529;53.570;9.964;2022-09-09T03:16:56;14.10;99.90
44817;DHT22;30529;53.570;9.964;2022-09-09T03:19:26;14.10;99.90
44817;DHT22;30529;53.570;9.964;2022-09-09T03:21:53;14.10;99.90
44817;DHT22;30529;53.570;9.964;2022-09-09T03:24:20;14.10;99.90
44817;DHT22;30529;53.570;9.964;2022-09-09T03:26:46;14.10;99.90
44817;DHT22;30529;53.570;9.964;2022-09-09T03:29:13;14.10;99.90
44817;DHT22;30529;53.570;9.964;2022-09-09T03:31:39;14.10;99.90
44817;DHT22;30529;53.570;9.964;2022-09-09T03:34:06;14.00;99.90
44817;DHT22;30529;53.570;9.964;2022-09-09T03:36:33;14.00;99.90
44817;DHT22;30529;53.570;9.964;2022-09-09T03:38:59;14.00;99.90
44817;DHT22;30529;53.570;9.964;2022-09-09T03:41:26;14.00;99.90
44817;DHT22;30529;53.570;9.964;2022-09-09T03:43:53;14.00;99.90
44817;DHT22;30529;53.570;9.964;2022-09-09T03:46:21;14.00;99.90
44817;DHT22;30529;53.570;9.964;2022-09-09T03:48:47;13.90;99.90
44817;DHT22;30529;53.570;9.964;2022-09-09T03:51:14;13.90;99.90
44817;DHT22;30529;53.570;9.964;2022-09-09T03:53:42;13.90;99.90
44817;DHT22;30529;53.570;9.964;2022-09-09T03:56:09;13.90;99.90
44817;DHT22;30529;53.570;9.964;2022-09-09T03:58:36;13.90;99.90
44817;DHT22;30529;53.570;9.964;2022-09-09T04:01:13;13.90;99.90
44817;DHT22;30529;53.570;9.964;2022-09-09T04:03:40;13.90;99.90
44817;DHT22;30529;53.570;9.964;2022-09-09T04:06:08;13.90;99.90
44817;DHT22;30529;53.570;9.964;2022-09-09T04:08:36;13.90;99.90
44817;DHT22;30529;53.570;9.964;2022-09-09T04:11:04;13.80;99.90
44817;DHT22;30529;53.570;9.964;2022-09-09T04:13:35;13.80;99.90
44817;DHT22;30529;53.570;9.964;2022-09-09T04:16:03;13.80;99.90
44817;DHT22;30529;53.570;9.964;2022-09-09T04:18:30;13.80;99.90
44817;DHT22;30529;53.570;9.964;2022-09-09T04:20:56;13.80;99.90
44817;DHT22;30529;53.570;9.964;2022-09-09T04:23:24;13.80;99.90
44817;DHT22;30529;53.570;9.964;2022-09-09T04:25:53;13.80;99.90
44817;DHT22;30529;53.570;9.964;2022-09-09T04:28:21;13.80;99.90
44817;DHT22;30529;53.570;9.964;2022-09-09T04:30:47;13.80;99.90
44817;DHT22;30529;53.570;9.964;2022-09-09T04:33:14;13.80;99.90
44817;DHT22;30529;53.570;9.964;2022-09-09T04:35:49;13.80;99.90
44817;DHT22;30529;53.570;9.964;2022-09-09T04:38:17;13.80;99.90
44817;DHT22;30529;53.570;9.964;2022-09-09T04:40:46;13.80;99.90
44817;DHT22;30529;53.570;9.964;2022-09-09T04:43:13;13.90;99.90
44817;DHT22;30529;53.570;9.964;2022-09-09T04:45:46;14.00;99.90
44817;DHT22;30529;53.570;9.964;2022-09-09T04:48:12;14.10;99.90
44817;DHT22;30529;53.570;9.964;2022-09-09T04:50:38;14.20;99.90
44817;DHT22;30529;53.570;9.964;2022-09-09T04:53:05;14.30;99.90
44817;DHT22;30529;53.570;9.964;2022-09-09T04:55:31;14.40;99.90
44817;DHT22;30529;53.570;9.964;2022-09-09T04:57:57;14.40;99.90
44817;DHT22;30529;53.570;9.964;2022-09-09T05:00:24;14.50;99.90
44817;DHT22;30529;53.570;9.964;2022-09-09T05:02:50;14.50;99.90
44817;DHT22;30529;53.570;9.964;2022-09-09T05:05:17;14.50;99.90
44817;DHT22;30529;53.570;9.964;2022-09-09T05:07:44;14.60;99.90
44817;DHT22;30529;53.570;9.964;2022-09-09T05:10:10;14.60;99.90
44817;DHT22;30529;53.570;9.964;2022-09-09T05:12:36;14.60;99.90
44817;DHT22;30529;53.570;9.964;2022-09-09T05:15:03;14.50;99.90
44817;DHT22;30529;53.570;9.964;2022-09-09T05:17:29;14.40;99.90
44817;DHT22;30529;53.570;9.964;2022-09-09T05:19:55;14.40;99.90
44817;DHT22;30529;53.570;9.964;2022-09-09T05:22:21;14.40;99.90
44817;DHT22;30529;53.570;9.964;2022-09-09T05:24:49;14.40;99.90
44817;DHT22;30529;53.570;9.964;2022-09-09T05:27:18;14.30;99.90
44817;DHT22;30529;53.570;9.964;2022-09-09T05:29:45;14.30;99.90
44817;DHT22;30529;53.570;9.964;2022-09-09T05:32:12;14.40;99.90
44817;DHT22;30529;53.570;9.964;2022-09-09T05:34:43;14.40;99.90
44817;DHT22;30529;53.570;9.964;2022-09-09T05:37:09;14.40;99.90
44817;DHT22;30529;53.570;9.964;2022-09-09T05:39:36;14.50;99.90
44817;DHT22;30529;53.570;9.964;2022-09-09T05:42:02;14.70;99.90
44817;DHT22;30529;53.570;9.964;2022-09-09T05:44:29;14.70;99.90
44817;DHT22;30529;53.570;9.964;2022-09-09T05:46:56;14.80;99.90
44817;DHT22;30529;53.570;9.964;2022-09-09T05:49:23;14.90;99.90
44817;DHT22;30529;53.570;9.964;2022-09-09T05:51:49;14.90;99.90
44817;DHT22;30529;53.570;9.964;2022-09-09T05:54:16;15.00;99.90
44817;DHT22;30529;53.570;9.964;2022-09-09T05:56:42;15.00;99.90
44817;DHT22;30529;53.570;9.964;2022-09-09T05:59:09;15.20;99.90
44817;DHT22;30529;53.570;9.964;2022-09-09T06:01:36;15.20;99.90
44817;DHT22;30529;53.570;9.964;2022-09-09T06:04:06;15.30;99.90
44817;DHT22;30529;53.570;9.964;2022-09-09T06:06:34;15.50;99.90
44817;DHT22;30529;53.570;9.964;2022-09-09T06:09:04;15.50;99.90
44817;DHT22;30529;53.570;9.964;2022-09-09T06:11:36;15.60;99.90
44817;DHT22;30529;53.570;9.964;2022-09-09T06:14:03;15.80;99.90
44817;DHT22;30529;53.570;9.964;2022-09-09T06:16:30;15.80;99.90
44817;DHT22;30529;53.570;9.964;2022-09-09T06:18:58;15.80;99.90
44817;DHT22;30529;53.570;9.964;2022-09-09T06:21:29;15.90;99.90
44817;DHT22;30529;53.570;9.964;2022-09-09T06:23:57;15.90;99.90
44817;DHT22;30529;53.570;9.964;2022-09-09T06:26:25;15.80;99.90
44817;DHT22;30529;53.570;9.964;2022-09-09T06:28:53;15.80;99.90
44817;DHT22;30529;53.570;9.964;2022-09-09T06:31:21;15.80;99.90
44817;DHT22;30529;53.570;9.964;2022-09-09T06:33:49;15.80;99.90
44817;DHT22;30529;53.570;9.964;2022-09-09T06:36:21;15.80;99.90
44817;DHT22;30529;53.570;9.964;2022-09-09T06:38:48;15.80;99.90
44817;DHT22;30529;53.570;9.964;2022-09-09T06:41:16;15.90;99.90
44817;DHT22;30529;53.570;9.964;2022-09-09T06:43:42;16.00;99.90
44817;DHT22;30529;53.570;9.964;2022-09-09T06:46:17;16.10;99.90
44817;DHT22;30529;53.570;9.964;2022-09-09T06:48:44;16.30;99.90
44817;DHT22;30529;53.570;9.964;2022-09-09T06:51:21;16.40;99.90
44817;DHT22;30529;53.570;9.964;2022-09-09T06:53:51;16.40;99.90
44817;DHT22;30529;53.570;9.964;2022-09-09T06:56:37;16.40;99.90
44817;DHT22;30529;53.570;9.964;2022-09-09T06:59:07;16.40;99.90
44817;DHT22;30529;53.570;9.964;2022-09-09T07:01:42;16.50;99.90
44817;DHT22;30529;53.570;9.964;2022-09-09T07:04:13;16.60;99.90
44817;DHT22;30529;53.570;9.964;2022-09-09T07:06:41;16.70;99.90
44817;DHT22;30529;53.570;9.964;2022-09-09T07:09:11;16.90;99.90
44817;DHT22;30529;53.570;9.964;2022-09-09T07:11:41;17.10;99.90
44817;DHT22;30529;53.570;9.964;2022-09-09T07:14:08;17.30;99.90
44817;DHT22;30529;53.570;9.964;2022-09-09T07:16:34;17.30;99.90
44817;DHT22;30529;53.570;9.964;2022-09-09T07:19:04;17.40;99.90
44817;DHT22;30529;53.570;9.964;2022-09-09T07:21:33;17.50;99.90
44817;DHT22;30529;53.570;9.964;2022-09-09T07:24:00;17.60;99.90
44817;DHT22;30529;53.570;9.964;2022-09-09T07:26:28;17.60;99.90
44817;DHT22;30529;53.570;9.964;2022-09-09T07:28:55;17.60;99.90
44817;DHT22;30529;53.570;9.964;2022-09-09T07:31:29;17.60;99.90
44817;DHT22;30529;53.570;9.964;2022-09-09T07:33:59;17.70;99.90
44817;DHT22;30529;53.570;9.964;2022-09-09T07:36:30;17.80;99.90
44817;DHT22;30529;53.570;9.964;2022-09-09T07:38:59;17.80;99.90
44817;DHT22;30529;53.570;9.964;2022-09-09T07:41:34;18.00;99.90
44817;DHT22;30529;53.570;9.964;2022-09-09T07:44:06;18.00;99.90
44817;DHT22;30529;53.570;9.964;2022-09-09T07:46:33;18.10;99.90
44817;DHT22;30529;53.570;9.964;2022-09-09T07:49:00;18.10;99.90
44817;DHT22;30529;53.570;9.964;2022-09-09T07:51:29;18.00;99.90
44817;DHT22;30529;53.570;9.964;2022-09-09T07:53:58;18.00;99.90
44817;DHT22;30529;53.570;9.964;2022-09-09T07:56:26;18.00;99.90
44817;DHT22;30529;53.570;9.964;2022-09-09T07:58:54;18.00;99.90
44817;DHT22;30529;53.570;9.964;2022-09-09T08:01:27;18.00;99.90
44817;DHT22;30529;53.570;9.964;2022-09-09T08:04:02;18.10;99.90
44817;DHT22;30529;53.570;9.964;2022-09-09T08:06:35;18.20;99.90
44817;DHT22;30529;53.570;9.964;2022-09-09T08:09:02;18.40;99.90
44817;DHT22;30529;53.570;9.964;2022-09-09T08:11:29;18.40;99.90
44817;DHT22;30529;53.570;9.964;2022-09-09T08:13:56;18.50;99.90
44817;DHT22;30529;53.570;9.964;2022-09-09T08:16:27;18.40;99.90
44817;DHT22;30529;53.570;9.964;2022-09-09T08:18:54;18.40;99.90
44817;DHT22;30529;53.570;9.964;2022-09-09T08:21:23;18.50;99.90
44817;DHT22;30529;53.570;9.964;2022-09-09T08:23:51;18.60;99.90
44817;DHT22;30529;53.570;9.964;2022-09-09T08:26:27;18.60;99.90
44817;DHT22;30529;53.570;9.964;2022-09-09T08:28:55;18.50;99.90
44817;DHT22;30529;53.570;9.964;2022-09-09T08:33:56;18.40;99.90
44817;DHT22;30529;53.570;9.964;2022-09-09T08:36:25;18.20;99.90
44817;DHT22;30529;53.570;9.964;2022-09-09T08:38:53;18.20;99.90
44817;DHT22;30529;53.570;9.964;2022-09-09T08:53:01;18.70;99.90
44817;DHT22;30529;53.570;9.964;2022-09-09T08:58:19;18.70;99.90
44817;DHT22;30529;53.570;9.964;2022-09-09T09:04:15;18.70;99.90
44817;DHT22;30529;53.570;9.964;2022-09-09T09:09:39;19.20;99.90
44817;DHT22;30529;53.570;9.964;2022-09-09T09:12:23;19.30;99.90
44817;DHT22;30529;53.570;9.964;2022-09-09T09:14:50;19.50;99.90
44817;DHT22;30529;53.570;9.964;2022-09-09T09:17:19;19.40;99.90
44817;DHT22;30529;53.570;9.964;2022-09-09T09:19:47;19.30;99.90
44817;DHT22;30529;53.570;9.964;2022-09-09T09:25:19;19.50;99.90
44817;DHT22;30529;53.570;9.964;2022-09-09T09:30:57;19.60;99.90
44817;DHT22;30529;53.570;9.964;2022-09-09T09:33:33;19.70;99.90
44817;DHT22;30529;53.570;9.964;2022-09-09T09:36:01;19.90;99.90
44817;DHT22;30529;53.570;9.964;2022-09-09T09:38:29;20.00;99.90
44817;DHT22;30529;53.570;9.964;2022-09-09T09:40:57;20.00;99.90
44817;DHT22;30529;53.570;9.964;2022-09-09T09:43:42;20.10;99.90
44817;DHT22;30529;53.570;9.964;2022-09-09T09:46:22;20.30;99.90
44817;DHT22;30529;53.570;9.964;2022-09-09T09:49:03;20.50;99.90
44817;DHT22;30529;53.570;9.964;2022-09-09T09:51:32;20.60;99.90
44817;DHT22;30529;53.570;9.964;2022-09-09T09:54:22;20.60;99.90
44817;DHT22;30529;53.570;9.964;2022-09-09T09:56:50;20.40;99.90
44817;DHT22;30529;53.570;9.964;2022-09-09T10:02:05;19.90;99.90
44817;DHT22;30529;53.570;9.964;2022-09-09T10:04:32;19.70;99.90
44817;DHT22;30529;53.570;9.964;2022-09-09T10:07:15;19.60;99.90
44817;DHT22;30529;53.570;9.964;2022-09-09T10:09:43;19.40;99.90
44817;DHT22;30529;53.570;9.964;2022-09-09T10:17:36;19.40;99.90
44817;DHT22;30529;53.570;9.964;2022-09-09T10:22:39;19.50;99.90
44817;DHT22;30529;53.570;9.964;2022-09-09T10:25:43;19.30;99.90
44817;DHT22;30529;53.570;9.964;2022-09-09T10:29:02;19.20;99.90
44817;DHT22;30529;53.570;9.964;2022-09-09T10:40:32;18.90;99.90
44817;DHT22;30529;53.570;9.964;2022-09-09T10:43:06;18.90;99.90
44817;DHT22;30529;53.570;9.964;2022-09-09T10:50:54;18.90;99.90
44817;DHT22;30529;53.570;9.964;2022-09-09T10:53:33;18.90;99.90
44817;DHT22;30529;53.570;9.964;2022-09-09T10:56:11;18.90;99.90
44817;DHT22;30529;53.570;9.964;2022-09-09T10:58:56;19.00;99.90
44817;DHT22;30529;53.570;9.964;2022-09-09T11:01:44;19.10;99.90
44817;DHT22;30529;53.570;9.964;2022-09-09T11:06:48;19.30;99.90
44817;DHT22;30529;53.570;9.964;2022-09-09T11:09:23;19.40;99.90
44817;DHT22;30529;53.570;9.964;2022-09-09T11:11:54;19.50;99.90
44817;DHT22;30529;53.570;9.964;2022-09-09T11:14:22;19.50;99.90
44817;DHT22;30529;53.570;9.964;2022-09-09T11:17:18;19.60;99.90
44817;DHT22;30529;53.570;9.964;2022-09-09T11:19:44;19.70;99.90
44817;DHT22;30529;53.570;9.964;2022-09-09T11:24:53;19.90;99.90
44817;DHT22;30529;53.570;9.964;2022-09-09T11:28:02;20.00;99.90
44817;DHT22;30529;53.570;9.964;2022-09-09T11:31:27;20.40;99.90
44817;DHT22;30529;53.570;9.964;2022-09-09T11:38:54;21.60;99.90
44817;DHT22;30529;53.570;9.964;2022-09-09T11:41:34;21.80;99.90
44817;DHT22;30529;53.570;9.964;2022-09-09T11:44:16;21.60;99.90
44817;DHT22;30529;53.570;9.964;2022-09-09T11:46:46;21.40;99.90
44817;DHT22;30529;53.570;9.964;2022-09-09T11:51:53;21.30;99.90
44817;DHT22;30529;53.570;9.964;2022-09-09T11:54:32;21.10;99.90
44817;DHT22;30529;53.570;9.964;2022-09-09T11:56:59;20.90;99.90
44817;DHT22;30529;53.570;9.964;2022-09-09T11:59:28;20.80;99.90
44817;DHT22;30529;53.570;9.964;2022-09-09T12:02:14;20.70;99.90
44817;DHT22;30529;53.570;9.964;2022-09-09T12:04:49;20.60;99.90
44817;DHT22;30529;53.570;9.964;2022-09-09T12:07:40;20.50;99.90
44817;DHT22;30529;53.570;9.964;2022-09-09T12:12:36;20.30;99.90
44817;DHT22;30529;53.570;9.964;2022-09-09T12:17:49;20.30;99.90
44817;DHT22;30529;53.570;9.964;2022-09-09T12:20:31;20.20;99.90
44817;DHT22;30529;53.570;9.964;2022-09-09T12:28:21;20.40;99.90
44817;DHT22;30529;53.570;9.964;2022-09-09T12:33:38;20.50;99.90
44817;DHT22;30529;53.570;9.964;2022-09-09T12:36:17;20.50;99.90
44817;DHT22;30529;53.570;9.964;2022-09-09T12:38:45;20.50;99.90
44817;DHT22;30529;53.570;9.964;2022-09-09T12:41:21;20.50;99.90
44817;DHT22;30529;53.570;9.964;2022-09-09T12:43:47;20.40;99.90
44817;DHT22;30529;53.570;9.964;2022-09-09T12:46:39;20.60;99.90
44817;DHT22;30529;53.570;9.964;2022-09-09T12:49:34;20.50;99.90
44817;DHT22;30529;53.570;9.964;2022-09-09T12:52:14;20.60;99.90
44817;DHT22;30529;53.570;9.964;2022-09-09T12:54:45;20.60;99.90
44817;DHT22;30529;53.570;9.964;2022-09-09T12:57:13;20.40;99.90
44817;DHT22;30529;53.570;9.964;2022-09-09T12:59:42;20.20;99.90
44817;DHT22;30529;53.570;9.964;2022-09-09T13:02:26;20.00;99.90
44817;DHT22;30529;53.570;9.964;2022-09-09T13:04:53;19.80;99.90
44817;DHT22;30529;53.570;9.964;2022-09-09T13:07:21;19.60;99.90
44817;DHT22;30529;53.570;9.964;2022-09-09T13:09:48;19.50;99.90
44817;DHT22;30529;53.570;9.964;2022-09-09T13:12:22;19.40;99.90
44817;DHT22;30529;53.570;9.964;2022-09-09T13:14:51;19.30;99.90
44817;DHT22;30529;53.570;9.964;2022-09-09T13:17:24;19.20;99.90
44817;DHT22;30529;53.570;9.964;2022-09-09T13:19:51;19.10;99.90
44817;DHT22;30529;53.570;9.964;2022-09-09T13:22:31;19.10;99.90
44817;DHT22;30529;53.570;9.964;2022-09-09T13:25:05;19.00;99.90
44817;DHT22;30529;53.570;9.964;2022-09-09T13:27:36;19.00;99.90
44817;DHT22;30529;53.570;9.964;2022-09-09T13:30:28;19.00;99.90
44817;DHT22;30529;53.570;9.964;2022-09-09T13:38:17;18.20;99.90
44817;DHT22;30529;53.570;9.964;2022-09-09T13:41:18;18.10;99.90
44817;DHT22;30529;53.570;9.964;2022-09-09T13:43:47;18.00;99.90
44817;DHT22;30529;53.570;9.964;2022-09-09T13:48:57;17.90;99.90
44817;DHT22;30529;53.570;9.964;2022-09-09T13:51:34;17.90;99.90
44817;DHT22;30529;53.570;9.964;2022-09-09T13:54:01;17.90;99.90
44817;DHT22;30529;53.570;9.964;2022-09-09T13:56:27;17.80;99.90
44817;DHT22;30529;53.570;9.964;2022-09-09T13:58:53;17.80;99.90
44817;DHT22;30529;53.570;9.964;2022-09-09T14:01:19;17.80;99.90
44817;DHT22;30529;53.570;9.964;2022-09-09T14:03:46;17.90;99.90
44817;DHT22;30529;53.570;9.964;2022-09-09T14:06:12;17.90;99.90
44817;DHT22;30529;53.570;9.964;2022-09-09T14:08:38;17.90;99.90
44817;DHT22;30529;53.570;9.964;2022-09-09T14:11:04;17.90;99.90
44817;DHT22;30529;53.570;9.964;2022-09-09T14:13:30;17.90;99.90
44817;DHT22;30529;53.570;9.964;2022-09-09T14:15:57;18.00;99.90
44817;DHT22;30529;53.570;9.964;2022-09-09T14:18:23;18.00;99.90
44817;DHT22;30529;53.570;9.964;2022-09-09T14:20:51;18.00;99.90
44817;DHT22;30529;53.570;9.964;2022-09-09T14:23:17;18.00;99.90
44817;DHT22;30529;53.570;9.964;2022-09-09T14:25:44;18.00;99.90
44817;DHT22;30529;53.570;9.964;2022-09-09T14:28:12;18.00;99.90
44817;DHT22;30529;53.570;9.964;2022-09-09T14:30:40;17.90;99.90
44817;DHT22;30529;53.570;9.964;2022-09-09T14:33:08;18.00;99.90
44817;DHT22;30529;53.570;9.964;2022-09-09T14:35:35;18.00;99.90
44817;DHT22;30529;53.570;9.964;2022-09-09T14:38:03;18.00;99.90
44817;DHT22;30529;53.570;9.964;2022-09-09T14:40:29;18.00;99.90
44817;DHT22;30529;53.570;9.964;2022-09-09T14:42:55;17.90;99.90
44817;DHT22;30529;53.570;9.964;2022-09-09T14:45:23;18.00;99.90
44817;DHT22;30529;53.570;9.964;2022-09-09T14:47:51;18.00;99.90
44817;DHT22;30529;53.570;9.964;2022-09-09T14:50:18;17.90;99.90
44817;DHT22;30529;53.570;9.964;2022-09-09T14:52:45;17.90;99.90
44817;DHT22;30529;53.570;9.964;2022-09-09T14:55:11;17.80;99.90
44817;DHT22;30529;53.570;9.964;2022-09-09T14:57:37;17.80;99.90
44817;DHT22;30529;53.570;9.964;2022-09-09T15:00:05;17.80;99.90
44817;DHT22;30529;53.570;9.964;2022-09-09T15:02:32;17.90;99.90
44817;DHT22;30529;53.570;9.964;2022-09-09T15:04:58;17.90;99.90
44817;DHT22;30529;53.570;9.964;2022-09-09T15:07:25;17.90;99.90
44817;DHT22;30529;53.570;9.964;2022-09-09T15:09:51;17.90;99.90
44817;DHT22;30529;53.570;9.964;2022-09-09T15:12:19;17.90;99.90
44817;DHT22;30529;53.570;9.964;2022-09-09T15:14:45;17.90;99.90
44817;DHT22;30529;53.570;9.964;2022-09-09T15:17:11;17.90;99.90
44817;DHT22;30529;53.570;9.964;2022-09-09T15:19:38;17.90;99.90
44817;DHT22;30529;53.570;9.964;2022-09-09T15:22:05;17.90;99.90
44817;DHT22;30529;53.570;9.964;2022-09-09T15:24:32;17.80;99.90
44817;DHT22;30529;53.570;9.964;2022-09-09T15:26:59;17.90;99.90
44817;DHT22;30529;53.570;9.964;2022-09-09T15:29:25;17.90;99.90
44817;DHT22;30529;53.570;9.964;2022-09-09T15:31:53;17.90;99.90
44817;DHT22;30529;53.570;9.964;2022-09-09T15:34:20;18.00;99.90
44817;DHT22;30529;53.570;9.964;2022-09-09T15:36:46;18.10;99.90
44817;DHT22;30529;53.570;9.964;2022-09-09T15:39:14;18.10;99.90
44817;DHT22;30529;53.570;9.964;2022-09-09T15:41:44;18.20;99.90
44817;DHT22;30529;53.570;9.964;2022-09-09T15:44:11;18.30;99.90
44817;DHT22;30529;53.570;9.964;2022-09-09T15:46:41;18.40;99.90
44817;DHT22;30529;53.570;9.964;2022-09-09T15:49:24;18.40;99.90
44817;DHT22;30529;53.570;9.964;2022-09-09T15:51:53;18.40;99.90
44817;DHT22;30529;53.570;9.964;2022-09-09T15:54:21;18.40;99.90
44817;DHT22;30529;53.570;9.964;2022-09-09T15:56:55;18.40;99.90
44817;DHT22;30529;53.570;9.964;2022-09-09T15:59:26;18.40;99.90
44817;DHT22;30529;53.570;9.964;2022-09-09T16:01:54;18.40;99.90
44817;DHT22;30529;53.570;9.964;2022-09-09T16:04:21;18.50;99.90
44817;DHT22;30529;53.570;9.964;2022-09-09T16:06:52;18.50;99.90
44817;DHT22;30529;53.570;9.964;2022-09-09T16:09:19;18.60;99.90
44817;DHT22;30529;53.570;9.964;2022-09-09T16:11:45;18.60;99.90
44817;DHT22;30529;53.570;9.964;2022-09-09T16:14:13;18.60;99.90
44817;DHT22;30529;53.570;9.964;2022-09-09T16:16:42;18.60;99.90
44817;DHT22;30529;53.570;9.964;2022-09-09T16:19:10;18.60;99.90
44817;DHT22;30529;53.570;9.964;2022-09-09T16:21:49;18.50;99.90
44817;DHT22;30529;53.570;9.964;2022-09-09T16:24:17;18.50;99.90
44817;DHT22;30529;53.570;9.964;2022-09-09T16:26:46;18.50;99.90
44817;DHT22;30529;53.570;9.964;2022-09-09T16:29:14;18.40;99.90
44817;DHT22;30529;53.570;9.964;2022-09-09T16:31:41;18.30;99.90
44817;DHT22;30529;53.570;9.964;2022-09-09T16:34:08;18.20;99.90
44817;DHT22;30529;53.570;9.964;2022-09-09T16:36:36;18.20;99.90
44817;DHT22;30529;53.570;9.964;2022-09-09T16:39:07;18.10;99.90
44817;DHT22;30529;53.570;9.964;2022-09-09T16:41:35;18.10;99.90
44817;DHT22;30529;53.570;9.964;2022-09-09T16:44:07;18.10;99.90
44817;DHT22;30529;53.570;9.964;2022-09-09T16:46:39;18.10;99.90
44817;DHT22;30529;53.570;9.964;2022-09-09T16:49:08;18.00;99.90
44817;DHT22;30529;53.570;9.964;2022-09-09T16:51:40;18.00;99.90
44817;DHT22;30529;53.570;9.964;2022-09-09T16:54:07;17.90;99.90
44817;DHT22;30529;53.570;9.964;2022-09-09T16:56:36;17.90;99.90
44817;DHT22;30529;53.570;9.964;2022-09-09T16:59:05;17.80;99.90
44817;DHT22;30529;53.570;9.964;2022-09-09T17:01:34;17.80;99.90
44817;DHT22;30529;53.570;9.964;2022-09-09T17:04:05;17.70;99.90
44817;DHT22;30529;53.570;9.964;2022-09-09T17:06:32;17.60;99.90
44817;DHT22;30529;53.570;9.964;2022-09-09T17:09:03;17.60;99.90
44817;DHT22;30529;53.570;9.964;2022-09-09T17:11:30;17.50;99.90
44817;DHT22;30529;53.570;9.964;2022-09-09T17:13:57;17.50;99.90
44817;DHT22;30529;53.570;9.964;2022-09-09T17:16:25;17.40;99.90
44817;DHT22;30529;53.570;9.964;2022-09-09T17:18:53;17.30;99.90
44817;DHT22;30529;53.570;9.964;2022-09-09T17:21:23;17.30;99.90
44817;DHT22;30529;53.570;9.964;2022-09-09T17:23:52;17.20;99.90
44817;DHT22;30529;53.570;9.964;2022-09-09T17:26:20;17.20;99.90
44817;DHT22;30529;53.570;9.964;2022-09-09T17:28:47;17.10;99.90
44817;DHT22;30529;53.570;9.964;2022-09-09T17:31:16;17.10;99.90
44817;DHT22;30529;53.570;9.964;2022-09-09T17:33:44;17.00;99.90
44817;DHT22;30529;53.570;9.964;2022-09-09T17:36:22;17.00;99.90
44817;DHT22;30529;53.570;9.964;2022-09-09T17:38:49;16.90;99.90
44817;DHT22;30529;53.570;9.964;2022-09-09T17:41:21;16.80;99.90
44817;DHT22;30529;53.570;9.964;2022-09-09T17:43:48;16.80;99.90
44817;DHT22;30529;53.570;9.964;2022-09-09T17:46:21;16.70;99.90
44817;DHT22;30529;53.570;9.964;2022-09-09T17:48:52;16.70;99.90
44817;DHT22;30529;53.570;9.964;2022-09-09T17:51:21;16.60;99.90
44817;DHT22;30529;53.570;9.964;2022-09-09T17:53:52;16.50;99.90
44817;DHT22;30529;53.570;9.964;2022-09-09T17:56:22;16.50;99.90
44817;DHT22;30529;53.570;9.964;2022-09-09T17:58:52;16.40;99.90
44817;DHT22;30529;53.570;9.964;2022-09-09T18:01:21;16.40;99.90